createdAt,value
2023-03-17T05:00:39.126Z,1.20
2023-03-17T05:01:39.285Z,1.50
2023-03-17T05:02:39.256Z,1.20
2023-03-17T05:03:39.006Z,1.50
2023-03-17T05:04:39.054Z,1.50
2023-03-17T05:05:38.991Z,1.90
2023-03-17T05:06:39.002Z,1.50
2023-03-17T05:07:38.950Z,0.90
2023-03-17T05:08:38.960Z,0.80
2023-03-17T05:09:39.001Z,1.30
2023-03-17T05:10:38.930Z,0.80
2023-03-17T05:11:38.901Z,1.00
2023-03-17T05:12:38.909Z,0.90
2023-03-17T05:13:45.922Z,1.00
2023-03-17T05:14:38.890Z,1.20
2023-03-17T05:15:38.894Z,1.10
2023-03-17T05:16:38.980Z,1.30
2023-03-17T05:17:38.840Z,1.40
2023-03-17T05:18:38.841Z,0.80
2023-03-17T05:19:38.837Z,0.90
2023-03-17T05:20:38.936Z,1.50
2023-03-17T05:21:38.798Z,1.40
2023-03-17T05:22:38.878Z,0.80
2023-03-17T05:23:38.761Z,1.30
2023-03-17T05:24:38.770Z,1.60
2023-03-17T05:25:38.750Z,1.30
2023-03-17T05:26:38.821Z,0.90
2023-03-17T05:27:38.710Z,1.20
2023-03-17T05:28:38.726Z,1.60
2023-03-17T05:29:38.708Z,1.40
2023-03-17T05:30:38.715Z,1.60
2023-03-17T05:31:38.658Z,1.40
2023-03-17T05:32:38.759Z,0.80
2023-03-17T05:33:38.638Z,1.50
2023-03-17T05:34:38.655Z,1.20
2023-03-17T05:35:38.637Z,0.90
2023-03-17T05:36:38.632Z,1.10
2023-03-17T05:37:38.661Z,0.90
2023-03-17T05:38:38.667Z,1.70
2023-03-17T05:39:38.570Z,1.30
2023-03-17T05:40:38.576Z,1.20
2023-03-17T05:41:38.654Z,1.10
2023-03-17T05:42:38.548Z,1.40
2023-03-17T05:43:38.521Z,1.20
2023-03-17T05:44:38.575Z,1.30
2023-03-17T05:45:38.493Z,0.90
2023-03-17T05:46:38.484Z,1.10
2023-03-17T05:47:38.468Z,1.90
2023-03-17T05:48:38.491Z,1.40
2023-03-17T05:49:38.431Z,1.70
2023-03-17T05:50:38.472Z,1.70
2023-03-17T05:51:38.440Z,1.50
2023-03-17T05:52:38.417Z,1.50
2023-03-17T05:53:38.394Z,1.30
2023-03-17T05:54:38.396Z,2.00
2023-03-17T05:55:38.412Z,1.50
2023-03-17T05:56:38.368Z,1.20
2023-03-17T05:57:38.349Z,1.50
2023-03-17T05:58:38.399Z,1.50
2023-03-17T05:59:38.316Z,1.00
2023-03-17T06:00:38.374Z,1.60
2023-03-17T06:01:38.284Z,1.50
2023-03-17T06:02:38.286Z,1.40
2023-03-17T06:03:38.356Z,0.90
2023-03-17T06:04:38.282Z,1.10
2023-03-17T06:05:38.298Z,1.20
2023-03-17T06:06:38.249Z,1.00
2023-03-17T06:07:50.770Z,0.80
2023-03-17T06:08:39.240Z,1.30
2023-03-17T06:09:38.188Z,1.40
2023-03-17T06:10:38.220Z,1.10
2023-03-17T06:11:38.206Z,1.60
2023-03-17T06:12:38.194Z,1.30
2023-03-17T06:13:38.167Z,1.10
2023-03-17T06:14:38.153Z,1.30
2023-03-17T06:15:38.195Z,1.00
2023-03-17T06:16:38.125Z,1.20
2023-03-17T06:17:38.081Z,1.30
2023-03-17T06:18:38.117Z,1.40
2023-03-17T06:19:38.083Z,1.70
2023-03-17T06:20:38.262Z,1.20
2023-03-17T06:21:38.048Z,1.20
2023-03-17T06:22:39.722Z,1.00
2023-03-17T06:23:38.014Z,1.30
2023-03-17T06:24:38.028Z,1.50
2023-03-17T06:25:37.982Z,1.20
2023-03-17T06:26:38.115Z,1.30
2023-03-17T06:27:37.987Z,1.50
2023-03-17T06:28:37.972Z,1.40
2023-03-17T06:29:37.942Z,1.10
2023-03-17T06:30:40.405Z,1.50
2023-03-17T06:31:38.044Z,1.30
2023-03-17T06:32:38.073Z,1.30
2023-03-17T06:33:37.888Z,1.10
2023-03-17T06:34:37.890Z,1.10
2023-03-17T06:35:37.934Z,1.30
2023-03-17T06:36:38.649Z,1.70
2023-03-17T06:37:37.846Z,1.10
2023-03-17T06:38:37.928Z,1.10
2023-03-17T06:39:37.820Z,1.30
2023-03-17T06:40:37.942Z,1.20
2023-03-17T06:41:37.800Z,1.10
2023-03-17T06:42:37.840Z,1.20
2023-03-17T06:43:37.789Z,1.00
2023-03-17T06:44:37.879Z,1.50
2023-03-17T06:45:37.763Z,1.30
2023-03-17T06:46:37.845Z,1.20
2023-03-17T06:47:37.731Z,1.10
2023-03-17T06:48:37.733Z,0.90
2023-03-17T06:49:37.680Z,0.90
2023-03-17T06:50:37.732Z,1.20
2023-03-17T06:51:37.781Z,1.20
2023-03-17T06:52:37.684Z,1.60
2023-03-17T06:53:37.633Z,1.00
2023-03-17T06:54:37.672Z,1.70
2023-03-17T06:55:37.693Z,1.20
2023-03-17T06:56:37.649Z,1.50
2023-03-17T06:57:37.577Z,1.00
2023-03-17T06:58:37.581Z,1.00
2023-03-17T06:59:37.551Z,1.30
2023-03-17T07:00:37.621Z,0.90
2023-03-17T07:01:37.585Z,0.90
2023-03-17T07:02:37.563Z,1.00
2023-03-17T07:03:38.541Z,1.10
2023-03-17T07:04:37.605Z,1.10
2023-03-17T07:05:37.504Z,0.70
2023-03-17T07:06:37.562Z,1.10
2023-03-17T07:07:37.452Z,1.20
2023-03-17T07:08:37.546Z,1.00
2023-03-17T07:09:37.432Z,1.20
2023-03-17T07:10:37.434Z,1.50
2023-03-17T07:11:37.424Z,1.60
2023-03-17T07:12:37.684Z,1.70
2023-03-17T07:13:37.384Z,1.10
2023-03-17T07:14:37.392Z,1.20
2023-03-17T07:15:37.378Z,1.90
2023-03-17T07:16:37.418Z,1.40
2023-03-17T07:17:37.369Z,1.40
2023-03-17T07:18:37.305Z,0.90
2023-03-17T07:19:37.342Z,1.40
2023-03-17T07:20:37.284Z,1.30
2023-03-17T07:21:37.319Z,1.20
2023-03-17T07:22:37.255Z,1.10
2023-03-17T07:23:37.337Z,1.30
2023-03-17T07:24:37.247Z,1.60
2023-03-17T07:25:37.236Z,1.30
2023-03-17T07:26:37.224Z,1.10
2023-03-17T07:27:37.337Z,1.20
2023-03-17T07:28:37.183Z,1.60
2023-03-17T07:29:37.235Z,1.70
2023-03-17T07:30:37.188Z,1.30
2023-03-17T07:31:37.225Z,1.20
2023-03-17T07:32:37.163Z,1.20
2023-03-17T07:33:37.123Z,1.10
2023-03-17T07:34:37.098Z,1.20
2023-03-17T07:35:37.153Z,1.00
2023-03-17T07:36:37.076Z,1.20
2023-03-17T07:37:37.085Z,1.20
2023-03-17T07:38:37.041Z,1.40
2023-03-17T07:39:37.059Z,0.90
2023-03-17T07:40:37.081Z,1.40
2023-03-17T07:41:37.025Z,1.20
2023-03-17T07:42:37.000Z,1.10
2023-03-17T07:43:37.008Z,1.20
2023-03-17T07:44:36.973Z,1.40
2023-03-17T07:45:37.115Z,1.90
2023-03-17T07:46:37.004Z,1.30
2023-03-17T07:47:36.968Z,1.30
2023-03-17T07:48:36.928Z,1.30
2023-03-17T07:49:41.688Z,1.20
2023-03-17T07:50:37.905Z,1.10
2023-03-17T07:51:36.918Z,1.40
2023-03-17T07:52:36.941Z,1.20
2023-03-17T07:53:36.912Z,1.30
2023-03-17T07:54:36.838Z,1.00
2023-03-17T07:55:36.846Z,1.30
2023-03-17T07:56:36.844Z,1.00
2023-03-17T07:57:36.865Z,1.30
2023-03-17T07:58:36.840Z,1.20
2023-03-17T07:59:36.822Z,1.30
2023-03-17T08:00:36.813Z,1.30
2023-03-17T08:01:36.874Z,1.30
2023-03-17T08:02:36.761Z,1.40
2023-03-17T08:03:37.699Z,1.30
2023-03-17T08:04:36.920Z,1.30
2023-03-17T08:05:36.733Z,0.90
2023-03-17T08:06:36.683Z,0.90
2023-03-17T08:07:36.705Z,1.50
2023-03-17T08:08:36.655Z,1.10
2023-03-17T08:09:36.676Z,1.00
2023-03-17T08:10:36.800Z,1.20
2023-03-17T08:11:36.680Z,1.30
2023-03-17T08:12:36.669Z,1.10
2023-03-17T08:13:36.622Z,0.90
2023-03-17T08:14:36.599Z,1.20
2023-03-17T08:15:36.708Z,1.30
2023-03-17T08:16:36.667Z,1.10
2023-03-17T08:17:36.603Z,1.20
2023-03-17T08:18:36.521Z,1.20
2023-03-17T08:19:36.525Z,1.00
2023-03-17T08:20:36.538Z,0.90
2023-03-17T08:21:36.528Z,1.60
2023-03-17T08:22:36.549Z,1.20
2023-03-17T08:23:36.484Z,1.30
2023-03-17T08:24:36.477Z,1.40
2023-03-17T08:25:36.482Z,1.00
2023-03-17T08:26:36.500Z,1.80
2023-03-17T08:27:36.462Z,1.10
2023-03-17T08:28:36.477Z,1.20
2023-03-17T08:29:36.425Z,1.10
2023-03-17T08:30:36.819Z,1.30
2023-03-17T08:31:36.520Z,1.10
2023-03-17T08:32:36.411Z,1.30
2023-03-17T08:33:36.434Z,1.10
2023-03-17T08:34:36.387Z,1.10
2023-03-17T08:35:36.350Z,1.70
2023-03-17T08:36:36.336Z,1.30
2023-03-17T08:37:36.301Z,1.40
2023-03-17T08:38:36.258Z,1.20
2023-03-17T08:39:36.272Z,1.30
2023-03-17T08:40:36.291Z,1.20
2023-03-17T08:41:36.250Z,1.50
2023-03-17T08:42:36.216Z,1.70
2023-03-17T08:43:36.238Z,1.00
2023-03-17T08:44:36.199Z,1.60
2023-03-17T08:45:36.220Z,1.10
2023-03-17T08:46:36.167Z,1.20
2023-03-17T08:47:36.183Z,1.00
2023-03-17T08:48:36.137Z,1.50
2023-03-17T08:49:36.178Z,1.40
2023-03-17T08:50:36.175Z,1.40
2023-03-17T08:51:36.140Z,1.40
2023-03-17T08:52:36.213Z,0.90
2023-03-17T08:53:36.094Z,1.20
2023-03-17T08:54:36.122Z,1.10
2023-03-17T08:55:36.110Z,1.30
2023-03-17T08:56:36.044Z,1.30
2023-03-17T08:57:36.029Z,1.20
2023-03-17T08:58:36.019Z,1.30
2023-03-17T08:59:36.024Z,1.00
2023-03-17T09:00:36.063Z,1.40
2023-03-17T09:01:36.093Z,1.10
2023-03-17T09:02:36.021Z,1.30
2023-03-17T09:03:36.047Z,1.20
2023-03-17T09:04:37.232Z,1.50
2023-03-17T09:05:38.336Z,1.30
2023-03-17T09:06:35.956Z,1.50
2023-03-17T09:07:35.968Z,1.40
2023-03-17T09:08:35.905Z,1.20
2023-03-17T09:09:35.880Z,1.10
2023-03-17T09:10:35.852Z,1.10
2023-03-17T09:11:35.855Z,1.30
2023-03-17T09:12:35.881Z,1.30
2023-03-17T09:13:35.821Z,1.10
2023-03-17T09:14:43.499Z,1.40
2023-03-17T09:15:36.887Z,1.20
2023-03-17T09:16:35.794Z,1.10
2023-03-17T09:17:35.768Z,0.90
2023-03-17T09:18:35.807Z,1.20
2023-03-17T09:19:35.735Z,1.20
2023-03-17T09:20:35.713Z,1.50
2023-03-17T09:21:35.706Z,1.40
2023-03-17T09:22:35.683Z,1.30
2023-03-17T09:23:35.687Z,1.10
2023-03-17T09:24:35.693Z,1.40
2023-03-17T09:25:35.681Z,1.20
2023-03-17T09:26:35.628Z,1.10
2023-03-17T09:27:35.623Z,1.40
2023-03-17T09:28:35.602Z,1.30
2023-03-17T09:29:35.636Z,1.30
2023-03-17T09:30:35.603Z,1.30
2023-03-17T09:31:35.608Z,1.70
2023-03-17T09:32:35.583Z,1.40
2023-03-17T09:33:35.558Z,1.10
2023-03-17T09:34:35.547Z,0.90
2023-03-17T09:35:35.567Z,1.20
2023-03-17T09:36:35.524Z,1.00
2023-03-17T09:37:35.489Z,1.40
2023-03-17T09:38:35.469Z,1.10
2023-03-17T09:39:35.528Z,1.00
2023-03-17T09:40:35.750Z,1.10
2023-03-17T09:41:35.456Z,0.90
2023-03-17T09:42:35.432Z,1.10
2023-03-17T09:43:35.419Z,1.30
2023-03-17T09:44:35.384Z,1.20
2023-03-17T09:45:35.428Z,0.90
2023-03-17T09:46:35.423Z,1.20
2023-03-17T09:47:35.378Z,1.20
2023-03-17T09:48:35.339Z,1.20
2023-03-17T09:49:35.357Z,1.00
2023-03-17T09:50:35.497Z,1.30
2023-03-17T09:51:35.329Z,1.00
2023-03-17T09:52:35.296Z,1.20
2023-03-17T09:53:35.287Z,1.20
2023-03-17T09:54:35.268Z,1.30
2023-03-17T09:55:35.297Z,1.20
2023-03-17T09:56:35.279Z,1.00
2023-03-17T09:57:35.238Z,1.00
2023-03-17T09:58:35.217Z,1.10
2023-03-17T09:59:35.237Z,1.00
2023-03-17T10:00:35.238Z,1.20
2023-03-17T10:01:35.221Z,1.10
2023-03-17T10:02:35.156Z,1.00
2023-03-17T10:03:35.166Z,0.90
2023-03-17T10:04:35.145Z,1.60
2023-03-17T10:05:35.636Z,1.20
2023-03-17T10:06:35.135Z,1.40
2023-03-17T10:07:35.143Z,1.00
2023-03-17T10:08:35.080Z,1.40
2023-03-17T10:09:35.092Z,1.50
2023-03-17T10:10:35.159Z,1.10
2023-03-17T10:11:35.080Z,1.20
2023-03-17T10:12:35.051Z,1.10
2023-03-17T10:13:35.079Z,1.30
2023-03-17T10:14:34.997Z,1.20
2023-03-17T10:15:35.088Z,1.10
2023-03-17T10:16:35.035Z,1.00
2023-03-17T10:17:35.002Z,1.30
2023-03-17T10:18:35.077Z,1.20
2023-03-17T10:19:35.148Z,1.40
2023-03-17T10:20:34.929Z,0.80
2023-03-17T10:21:34.980Z,1.10
2023-03-17T10:22:34.922Z,1.10
2023-03-17T10:23:34.919Z,0.90
2023-03-17T10:24:34.860Z,0.90
2023-03-17T10:25:35.054Z,0.90
2023-03-17T10:26:34.870Z,0.90
2023-03-17T10:27:34.900Z,0.90
2023-03-17T10:28:34.835Z,0.80
2023-03-17T10:29:34.831Z,1.00
2023-03-17T10:30:34.861Z,0.90
2023-03-17T10:31:34.937Z,1.10
2023-03-17T10:32:34.807Z,0.90
2023-03-17T10:33:34.757Z,0.80
2023-03-17T10:34:37.743Z,0.80
2023-03-17T10:35:34.793Z,0.80
2023-03-17T10:36:34.837Z,1.00
2023-03-17T10:37:34.718Z,1.20
2023-03-17T10:38:34.689Z,0.80
2023-03-17T10:39:34.690Z,0.90
2023-03-17T10:40:34.717Z,1.10
2023-03-17T10:41:34.656Z,0.80
2023-03-17T10:42:34.629Z,1.00
2023-03-17T10:43:34.638Z,0.80
2023-03-17T10:44:34.623Z,0.70
2023-03-17T10:45:34.661Z,0.80
2023-03-17T10:46:34.641Z,0.90
2023-03-17T10:47:34.590Z,0.80
2023-03-17T10:48:34.551Z,1.00
2023-03-17T10:49:34.589Z,0.70
2023-03-17T10:50:35.045Z,0.90
2023-03-17T10:51:34.536Z,0.70
2023-03-17T10:52:34.507Z,0.90
2023-03-17T10:53:34.546Z,0.80
2023-03-17T10:54:34.484Z,0.90
2023-03-17T10:55:34.560Z,0.70
2023-03-17T10:56:34.471Z,1.00
2023-03-17T10:57:34.464Z,1.10
2023-03-17T10:58:34.429Z,0.90
2023-03-17T10:59:34.432Z,0.80
2023-03-17T11:00:34.582Z,0.60
2023-03-17T11:01:34.406Z,0.90
2023-03-17T11:02:34.385Z,0.80
2023-03-17T11:03:34.449Z,0.70
2023-03-17T11:04:34.357Z,0.80
2023-03-17T11:05:34.347Z,0.80
2023-03-17T11:06:34.367Z,0.70
2023-03-17T11:07:34.369Z,0.70
2023-03-17T11:08:34.318Z,0.70
2023-03-17T11:09:34.322Z,1.10
2023-03-17T11:10:34.350Z,0.70
2023-03-17T11:11:34.296Z,0.80
2023-03-17T11:12:34.257Z,0.80
2023-03-17T11:13:34.270Z,0.80
2023-03-17T11:14:41.240Z,0.70
2023-03-17T11:15:36.164Z,0.80
2023-03-17T11:16:34.244Z,0.80
2023-03-17T11:17:34.193Z,0.80
2023-03-17T11:18:34.167Z,0.80
2023-03-17T11:19:34.181Z,0.80
2023-03-17T11:20:34.163Z,0.80
2023-03-17T11:21:34.294Z,0.80
2023-03-17T11:22:34.124Z,0.90
2023-03-17T11:23:34.139Z,0.90
2023-03-17T11:24:34.094Z,0.90
2023-03-17T11:25:34.150Z,0.70
2023-03-17T11:26:34.075Z,0.70
2023-03-17T11:27:34.063Z,0.70
2023-03-17T11:28:34.045Z,0.80
2023-03-17T11:29:34.076Z,0.80
2023-03-17T11:30:34.084Z,0.90
2023-03-17T11:31:34.032Z,0.90
2023-03-17T11:32:34.045Z,0.80
2023-03-17T11:33:33.977Z,0.60
2023-03-17T11:34:33.996Z,0.80
2023-03-17T11:35:33.994Z,0.60
2023-03-17T11:36:34.002Z,0.90
2023-03-17T11:37:33.939Z,0.60
2023-03-17T11:38:33.934Z,0.80
2023-03-17T11:39:33.903Z,0.90
2023-03-17T11:40:33.909Z,0.60
2023-03-17T11:41:33.885Z,1.10
2023-03-17T11:42:33.911Z,0.80
2023-03-17T11:43:33.855Z,0.70
2023-03-17T11:44:33.874Z,0.70
2023-03-17T11:45:33.905Z,0.70
2023-03-17T11:46:33.896Z,0.80
2023-03-17T11:47:33.812Z,0.80
2023-03-17T11:48:33.825Z,0.70
2023-03-17T11:49:33.775Z,0.70
2023-03-17T11:50:34.214Z,0.80
2023-03-17T11:51:33.748Z,0.70
2023-03-17T11:52:33.801Z,0.60
2023-03-17T11:53:33.714Z,0.60
2023-03-17T11:54:33.730Z,0.70
2023-03-17T11:55:33.693Z,0.80
2023-03-17T11:56:33.710Z,0.90
2023-03-17T11:57:33.657Z,0.70
2023-03-17T11:58:33.740Z,0.70
2023-03-17T11:59:33.639Z,0.60
2023-03-17T12:00:34.416Z,0.70
2023-03-17T12:01:33.684Z,0.70
2023-03-17T12:02:33.630Z,0.70
2023-03-17T12:03:33.601Z,0.70
2023-03-17T12:04:33.694Z,0.60
2023-03-17T12:05:33.555Z,0.60
2023-03-17T12:06:33.566Z,0.60
2023-03-17T12:07:33.534Z,0.80
2023-03-17T12:08:33.555Z,1.00
2023-03-17T12:09:33.511Z,0.80
2023-03-17T12:10:33.629Z,1.00
2023-03-17T12:11:33.485Z,0.80
2023-03-17T12:12:33.562Z,0.90
2023-03-17T12:13:33.454Z,0.60
2023-03-17T12:14:33.540Z,1.10
2023-03-17T12:15:33.465Z,0.80
2023-03-17T12:16:33.528Z,1.00
2023-03-17T12:17:33.548Z,1.00
2023-03-17T12:18:33.408Z,0.80
2023-03-17T12:19:33.374Z,0.90
2023-03-17T12:20:33.747Z,1.20
2023-03-17T12:21:33.372Z,0.80
2023-03-17T12:22:33.422Z,0.90
2023-03-17T12:23:33.320Z,1.10
2023-03-17T12:24:33.376Z,0.80
2023-03-17T12:25:33.294Z,1.00
2023-03-17T12:26:33.316Z,0.90
2023-03-17T12:27:33.371Z,0.80
2023-03-17T12:28:33.405Z,1.10
2023-03-17T12:29:33.274Z,0.90
2023-03-17T12:30:33.508Z,0.80
2023-03-17T12:31:33.260Z,1.10
2023-03-17T12:32:33.323Z,1.00
2023-03-17T12:33:33.189Z,0.80
2023-03-17T12:34:33.332Z,1.00
2023-03-17T12:35:33.549Z,0.80
2023-03-17T12:36:33.179Z,0.80
2023-03-17T12:37:33.166Z,1.00
2023-03-17T12:38:33.169Z,1.20
2023-03-17T12:39:33.137Z,0.70
2023-03-17T12:40:33.259Z,0.70
2023-03-17T12:41:33.238Z,0.80
2023-03-17T12:42:33.091Z,0.80
2023-03-17T12:43:33.072Z,0.60
2023-03-17T12:44:33.092Z,1.00
2023-03-17T12:45:33.306Z,0.80
2023-03-17T12:46:33.132Z,0.70
2023-03-17T12:47:33.023Z,0.70
2023-03-17T12:48:33.023Z,0.80
2023-03-17T12:49:33.138Z,0.70
2023-03-17T12:50:33.002Z,0.70
2023-03-17T12:51:32.966Z,0.80
2023-03-17T12:52:33.022Z,0.80
2023-03-17T12:53:32.947Z,0.70
2023-03-17T12:54:32.959Z,0.70
2023-03-17T12:55:33.281Z,0.60
2023-03-17T12:56:32.918Z,0.50
2023-03-17T12:57:32.907Z,0.70
2023-03-17T12:58:32.943Z,0.70
2023-03-17T12:59:32.858Z,0.80
2023-03-17T13:00:32.918Z,0.60
2023-03-17T13:01:32.913Z,0.90
2023-03-17T13:02:32.840Z,0.50
2023-03-17T13:03:32.855Z,0.40
2023-03-17T13:04:32.879Z,0.60
2023-03-17T13:05:33.416Z,0.50
2023-03-17T13:06:32.797Z,0.40
2023-03-17T13:07:32.763Z,0.60
2023-03-17T13:08:32.774Z,0.60
2023-03-17T13:09:32.763Z,0.50
2023-03-17T13:10:32.799Z,0.50
2023-03-17T13:11:32.720Z,0.60
2023-03-17T13:12:32.730Z,0.40
2023-03-17T13:13:32.677Z,0.50
2023-03-17T13:14:32.703Z,0.40
2023-03-17T13:15:33.086Z,0.40
2023-03-17T13:16:32.705Z,0.30
2023-03-17T13:17:32.627Z,0.40
2023-03-17T13:18:32.672Z,0.40
2023-03-17T13:19:32.620Z,0.40
2023-03-17T13:20:32.666Z,0.20
2023-03-17T13:21:35.342Z,0.30
2023-03-17T13:22:32.589Z,0.50
2023-03-17T13:23:32.558Z,0.30
2023-03-17T13:24:32.559Z,0.30
2023-03-17T13:25:33.057Z,0.30
2023-03-17T13:26:32.610Z,0.30
2023-03-17T13:27:32.499Z,0.30
2023-03-17T13:28:32.516Z,0.30
2023-03-17T13:29:32.475Z,0.40
2023-03-17T13:30:32.783Z,0.40
2023-03-17T13:31:32.517Z,0.30
2023-03-17T13:32:32.572Z,0.50
2023-03-17T13:33:32.478Z,0.60
2023-03-17T13:34:32.437Z,0.40
2023-03-17T13:35:32.708Z,0.40
2023-03-17T13:36:32.417Z,0.30
2023-03-17T13:37:32.378Z,0.60
2023-03-17T13:38:32.396Z,0.40
2023-03-17T13:39:32.361Z,0.40
2023-03-17T13:40:32.804Z,0.30
2023-03-17T13:41:32.402Z,0.40
2023-03-17T13:42:32.335Z,0.30
2023-03-17T13:43:32.319Z,0.30
2023-03-17T13:44:32.322Z,0.40
2023-03-17T13:45:32.675Z,0.40
2023-03-17T13:46:32.352Z,0.50
2023-03-17T13:47:32.367Z,0.30
2023-03-17T13:48:32.268Z,0.40
2023-03-17T13:49:32.266Z,0.50
2023-03-17T13:50:32.237Z,0.70
2023-03-17T13:51:32.226Z,0.40
2023-03-17T13:52:32.208Z,0.40
2023-03-17T13:53:32.230Z,0.50
2023-03-17T13:54:32.196Z,0.30
2023-03-17T13:55:32.396Z,0.50
2023-03-17T13:56:32.160Z,0.30
2023-03-17T13:57:32.130Z,0.50
2023-03-17T13:58:32.167Z,0.60
2023-03-17T13:59:32.101Z,0.50
2023-03-17T14:00:32.185Z,0.40
2023-03-17T14:01:32.087Z,0.60
2023-03-17T14:02:32.079Z,0.40
2023-03-17T14:03:32.184Z,0.30
2023-03-17T14:04:32.063Z,0.50
2023-03-17T14:05:32.284Z,0.50
2023-03-17T14:06:32.046Z,0.40
2023-03-17T14:07:32.008Z,0.40
2023-03-17T14:08:32.045Z,0.40
2023-03-17T14:09:32.017Z,0.50
2023-03-17T14:10:32.067Z,0.50
2023-03-17T14:11:32.028Z,0.40
2023-03-17T14:12:31.974Z,0.40
2023-03-17T14:13:31.966Z,0.40
2023-03-17T14:14:33.372Z,0.40
2023-03-17T14:15:32.420Z,0.60
2023-03-17T14:16:31.987Z,0.40
2023-03-17T14:17:31.886Z,0.40
2023-03-17T14:18:31.889Z,0.60
2023-03-17T14:19:31.903Z,0.30
2023-03-17T14:20:31.970Z,0.60
2023-03-17T14:21:31.835Z,0.60
2023-03-17T14:22:31.858Z,0.50
2023-03-17T14:23:31.808Z,0.60
2023-03-17T14:24:31.810Z,0.60
2023-03-17T14:25:31.910Z,0.50
2023-03-17T14:26:31.816Z,0.50
2023-03-17T14:27:31.745Z,0.60
2023-03-17T14:28:31.759Z,0.40
2023-03-17T14:29:31.722Z,0.40
2023-03-17T14:30:31.765Z,0.40
2023-03-17T14:31:31.760Z,0.50
2023-03-17T14:32:31.743Z,0.50
2023-03-17T14:33:31.668Z,0.50
2023-03-17T14:34:31.704Z,0.30
2023-03-17T14:35:31.888Z,0.60
2023-03-17T14:36:31.687Z,0.40
2023-03-17T14:37:31.621Z,0.50
2023-03-17T14:38:31.626Z,0.50
2023-03-17T14:39:31.598Z,0.60
2023-03-17T14:40:31.607Z,0.50
2023-03-17T14:41:32.865Z,0.40
2023-03-17T14:42:31.662Z,0.50
2023-03-17T14:43:31.538Z,0.50
2023-03-17T14:44:31.619Z,0.50
2023-03-17T14:45:31.753Z,0.40
2023-03-17T14:46:31.552Z,0.40
2023-03-17T14:47:31.501Z,0.50
2023-03-17T14:48:31.508Z,0.40
2023-03-17T14:49:31.496Z,0.50
2023-03-17T14:50:31.583Z,0.80
2023-03-17T14:51:31.437Z,0.70
2023-03-17T14:52:31.446Z,0.50
2023-03-17T14:53:31.409Z,0.50
2023-03-17T14:54:31.423Z,0.60
2023-03-17T14:55:31.619Z,0.60
2023-03-17T14:56:31.407Z,0.50
2023-03-17T14:57:31.369Z,0.50
2023-03-17T14:58:31.374Z,0.40
2023-03-17T14:59:31.333Z,0.50
2023-03-17T15:00:31.403Z,0.50
2023-03-17T15:01:31.688Z,0.60
2023-03-17T15:02:31.362Z,0.30
2023-03-17T15:03:31.297Z,0.60
2023-03-17T15:04:31.297Z,0.50
2023-03-17T15:05:31.499Z,0.60
2023-03-17T15:06:31.492Z,0.50
2023-03-17T15:07:31.226Z,0.80
2023-03-17T15:08:31.242Z,0.60
2023-03-17T15:09:31.258Z,0.50
2023-03-17T15:10:31.501Z,0.50
2023-03-17T15:11:31.205Z,0.70
2023-03-17T15:12:31.350Z,0.50
2023-03-17T15:13:31.155Z,0.60
2023-03-17T15:14:31.166Z,0.50
2023-03-17T15:15:31.126Z,0.70
2023-03-17T15:16:31.188Z,0.50
2023-03-17T15:17:31.119Z,0.70
2023-03-17T15:18:31.156Z,0.70
2023-03-17T15:19:31.176Z,0.70
2023-03-17T15:20:31.425Z,0.60
2023-03-17T15:21:31.068Z,0.60
2023-03-17T15:22:31.088Z,0.60
2023-03-17T15:23:31.034Z,0.50
2023-03-17T15:24:31.093Z,0.60
2023-03-17T15:25:31.080Z,0.40
2023-03-17T15:26:31.019Z,0.50
2023-03-17T15:27:31.134Z,0.60
2023-03-17T15:28:30.995Z,0.70
2023-03-17T15:29:30.972Z,0.50
2023-03-17T15:30:44.277Z,0.50
2023-03-17T15:31:31.951Z,0.80
2023-03-17T15:32:30.980Z,0.50
2023-03-17T15:33:30.919Z,0.50
2023-03-17T15:34:30.898Z,0.70
2023-03-17T15:35:31.081Z,0.40
2023-03-17T15:36:33.068Z,0.80
2023-03-17T15:37:30.846Z,0.60
2023-03-17T15:38:30.859Z,0.40
2023-03-17T15:39:30.827Z,0.50
2023-03-17T15:40:31.085Z,0.70
2023-03-17T15:41:30.790Z,0.80
2023-03-17T15:42:30.797Z,0.70
2023-03-17T15:43:30.775Z,0.70
2023-03-17T15:44:30.761Z,0.60
2023-03-17T15:45:30.757Z,0.60
2023-03-17T15:46:31.104Z,0.60
2023-03-17T15:47:30.769Z,0.70
2023-03-17T15:48:30.706Z,1.00
2023-03-17T15:49:30.722Z,0.60
2023-03-17T15:50:37.698Z,0.90
2023-03-17T15:51:37.793Z,0.90
2023-03-17T15:52:38.686Z,0.80
2023-03-17T15:53:37.692Z,0.70
2023-03-17T15:54:30.629Z,0.90
2023-03-17T15:55:30.665Z,1.10
2023-03-17T15:56:37.622Z,0.90
2023-03-17T15:57:37.671Z,0.90
2023-03-17T15:58:30.588Z,0.90
2023-03-17T15:59:30.576Z,1.00
2023-03-17T16:00:30.804Z,0.90
2023-03-17T16:01:30.698Z,0.90
2023-03-17T16:02:30.623Z,0.80
2023-03-17T16:03:30.593Z,1.10
2023-03-17T16:04:30.526Z,1.50
2023-03-17T16:05:30.526Z,0.90
2023-03-17T16:06:30.462Z,0.80
2023-03-17T16:07:30.495Z,0.70
2023-03-17T16:08:30.448Z,0.80
2023-03-17T16:09:30.520Z,0.80
2023-03-17T16:10:30.645Z,0.90
2023-03-17T16:11:30.444Z,0.70
2023-03-17T16:12:30.393Z,0.70
2023-03-17T16:13:30.411Z,0.50
2023-03-17T16:14:30.363Z,1.00
2023-03-17T16:15:30.426Z,0.90
2023-03-17T16:16:30.346Z,0.90
2023-03-17T16:17:30.361Z,1.00
2023-03-17T16:18:30.323Z,1.00
2023-03-17T16:19:30.313Z,1.30
2023-03-17T16:20:30.517Z,0.60
2023-03-17T16:21:30.322Z,0.80
2023-03-17T16:22:30.251Z,1.20
2023-03-17T16:23:30.271Z,1.10
2023-03-17T16:24:30.265Z,0.80
2023-03-17T16:25:30.241Z,0.70
2023-03-17T16:26:30.253Z,0.90
2023-03-17T16:27:30.240Z,0.90
2023-03-17T16:28:30.221Z,0.90
2023-03-17T16:29:30.193Z,1.10
2023-03-17T16:30:30.387Z,0.90
2023-03-17T16:31:30.321Z,0.90
2023-03-17T16:32:30.207Z,1.00
2023-03-17T16:33:30.135Z,0.90
2023-03-17T16:34:30.105Z,0.90
2023-03-17T16:35:30.294Z,0.80
2023-03-17T16:36:30.082Z,1.10
2023-03-17T16:37:30.113Z,1.10
2023-03-17T16:38:30.055Z,0.90
2023-03-17T16:39:30.073Z,1.00
2023-03-17T16:40:30.447Z,0.80
2023-03-17T16:41:30.045Z,1.10
2023-03-17T16:42:30.031Z,1.00
2023-03-17T16:43:30.020Z,0.90
2023-03-17T16:44:30.080Z,0.70
2023-03-17T16:45:30.047Z,0.90
2023-03-17T16:46:30.022Z,0.70
2023-03-17T16:47:29.973Z,1.00
2023-03-17T16:48:29.934Z,0.80
2023-03-17T16:49:30.013Z,0.90
2023-03-17T16:50:30.252Z,0.90
2023-03-17T16:51:29.913Z,0.70
2023-03-17T16:52:29.966Z,0.80
2023-03-17T16:53:29.905Z,0.70
2023-03-17T16:54:29.848Z,0.80
2023-03-17T16:55:29.905Z,0.90
2023-03-17T16:56:29.876Z,0.80
2023-03-17T16:57:29.850Z,0.60
2023-03-17T16:58:29.791Z,0.70
2023-03-17T16:59:29.907Z,0.80
2023-03-17T17:00:30.236Z,0.60
2023-03-17T17:01:29.816Z,0.60
2023-03-17T17:02:29.764Z,0.60
2023-03-17T17:03:29.773Z,0.60
2023-03-17T17:04:29.722Z,0.50
2023-03-17T17:05:29.724Z,0.40
2023-03-17T17:06:30.061Z,0.50
2023-03-17T17:07:29.723Z,0.40
2023-03-17T17:08:29.686Z,0.30
2023-03-17T17:09:29.715Z,0.40
2023-03-17T17:10:29.846Z,0.40
2023-03-17T17:11:29.702Z,0.50
2023-03-17T17:12:29.653Z,0.40
2023-03-17T17:13:29.642Z,0.50
2023-03-17T17:14:36.604Z,0.60
2023-03-17T17:15:29.602Z,0.50
2023-03-17T17:16:29.598Z,0.50
2023-03-17T17:17:30.400Z,0.50
2023-03-17T17:18:29.569Z,0.50
2023-03-17T17:19:29.547Z,0.70
2023-03-17T17:20:29.624Z,0.50
2023-03-17T17:21:29.517Z,0.50
2023-03-17T17:22:29.487Z,0.60
2023-03-17T17:23:29.706Z,0.80
2023-03-17T17:24:29.467Z,0.70
2023-03-17T17:25:29.816Z,0.90
2023-03-17T17:26:29.456Z,0.60
2023-03-17T17:27:29.450Z,0.50
2023-03-17T17:28:29.405Z,0.50
2023-03-17T17:29:32.219Z,0.70
2023-03-17T17:30:29.831Z,0.60
2023-03-17T17:31:29.449Z,0.60
2023-03-17T17:32:29.417Z,0.80
2023-03-17T17:33:29.366Z,0.70
2023-03-17T17:34:29.337Z,0.80
2023-03-17T17:35:32.010Z,0.50
2023-03-17T17:36:29.314Z,1.00
2023-03-17T17:37:29.377Z,1.10
2023-03-17T17:38:29.295Z,0.90
2023-03-17T17:39:29.295Z,0.90
2023-03-17T17:40:29.513Z,0.90
2023-03-17T17:41:31.379Z,0.80
2023-03-17T17:42:29.245Z,0.90
2023-03-17T17:43:29.328Z,0.70
2023-03-17T17:44:29.208Z,0.90
2023-03-17T17:45:29.210Z,1.10
2023-03-17T17:46:29.282Z,0.90
2023-03-17T17:47:31.745Z,0.70
2023-03-17T17:48:29.177Z,0.90
2023-03-17T17:49:29.162Z,1.10
2023-03-17T17:50:29.286Z,1.10
2023-03-17T17:51:29.132Z,1.20
2023-03-17T17:52:29.113Z,0.90
2023-03-17T17:53:29.100Z,1.40
2023-03-17T17:54:29.132Z,1.10
2023-03-17T17:55:29.113Z,1.20
2023-03-17T17:56:29.055Z,1.40
2023-03-17T17:57:29.058Z,0.90
2023-03-17T17:58:29.068Z,1.00
2023-03-17T17:59:29.039Z,0.90
2023-03-17T18:00:29.406Z,0.70
2023-03-17T18:01:29.120Z,0.80
2023-03-17T18:02:28.969Z,0.90
2023-03-17T18:03:30.968Z,0.70
2023-03-17T18:04:28.961Z,0.80
2023-03-17T18:05:28.966Z,0.60
2023-03-17T18:06:28.978Z,1.10
2023-03-17T18:07:28.950Z,1.50
2023-03-17T18:08:28.889Z,0.80
2023-03-17T18:09:30.891Z,1.50
2023-03-17T18:10:29.025Z,0.70
2023-03-17T18:11:28.878Z,1.10
2023-03-17T18:12:35.851Z,1.00
2023-03-17T18:13:28.846Z,1.00
2023-03-17T18:14:36.857Z,1.00
2023-03-17T18:15:28.809Z,0.60
2023-03-17T18:16:28.859Z,1.30
2023-03-17T18:17:30.665Z,1.10
2023-03-17T18:18:28.758Z,1.10